sensor_id;sensor_type;location;lat;lon;timestamp;pressure;altitude;pressure_sealevel;temperature;humidity
45040;BME280;30778;53.574;7.770;2023-07-09T00:01:16;101869.25;;;19.39;40.44
45040;BME280;30778;53.574;7.770;2023-07-09T00:03:43;101873.22;;;19.32;40.61
45040;BME280;30778;53.574;7.770;2023-07-09T00:06:09;101870.94;;;19.11;40.98
45040;BME280;30778;53.574;7.770;2023-07-09T00:08:41;101864.25;;;19.20;40.87
45040;BME280;30778;53.574;7.770;2023-07-09T00:11:07;101870.59;;;19.17;41.00
45040;BME280;30778;53.574;7.770;2023-07-09T00:13:32;101871.34;;;19.19;41.01
45040;BME280;30778;53.574;7.770;2023-07-09T00:16:01;101872.19;;;19.20;40.82
45040;BME280;30778;53.574;7.770;2023-07-09T00:18:27;101874.44;;;19.12;40.95
45040;BME280;30778;53.574;7.770;2023-07-09T00:20:53;101878.34;;;19.06;41.47
45040;BME280;30778;53.574;7.770;2023-07-09T00:23:19;101874.25;;;19.00;41.49
45040;BME280;30778;53.574;7.770;2023-07-09T00:25:46;101875.56;;;18.93;41.81
45040;BME280;30778;53.574;7.770;2023-07-09T00:28:17;101874.59;;;18.94;41.68
45040;BME280;30778;53.574;7.770;2023-07-09T00:30:45;101870.47;;;18.90;41.50
45040;BME280;30778;53.574;7.770;2023-07-09T00:33:12;101867.94;;;18.87;41.81
45040;BME280;30778;53.574;7.770;2023-07-09T00:35:41;101860.88;;;18.87;41.55
45040;BME280;30778;53.574;7.770;2023-07-09T00:38:23;101866.41;;;18.83;41.82
45040;BME280;30778;53.574;7.770;2023-07-09T00:41:11;101872.25;;;18.74;42.01
45040;BME280;30778;53.574;7.770;2023-07-09T00:43:43;101864.91;;;18.79;41.80
45040;BME280;30778;53.574;7.770;2023-07-09T00:48:55;101864.22;;;18.75;41.71
45040;BME280;30778;53.574;7.770;2023-07-09T00:51:23;101870.56;;;18.73;41.70
45040;BME280;30778;53.574;7.770;2023-07-09T00:53:52;101863.75;;;18.68;41.98
45040;BME280;30778;53.574;7.770;2023-07-09T00:56:33;101872.22;;;18.59;42.02
45040;BME280;30778;53.574;7.770;2023-07-09T00:59:05;101863.44;;;18.59;42.01
45040;BME280;30778;53.574;7.770;2023-07-09T01:01:33;101861.06;;;18.54;42.55
45040;BME280;30778;53.574;7.770;2023-07-09T01:04:00;101859.56;;;18.34;42.99
45040;BME280;30778;53.574;7.770;2023-07-09T01:06:45;101859.19;;;18.40;42.63
45040;BME280;30778;53.574;7.770;2023-07-09T01:09:13;101857.28;;;18.28;42.91
45040;BME280;30778;53.574;7.770;2023-07-09T01:11:38;101854.53;;;18.30;42.86
45040;BME280;30778;53.574;7.770;2023-07-09T01:14:07;101855.16;;;18.19;43.07
45040;BME280;30778;53.574;7.770;2023-07-09T01:16:40;101845.91;;;18.10;43.49
45040;BME280;30778;53.574;7.770;2023-07-09T01:19:06;101846.56;;;18.14;43.57
45040;BME280;30778;53.574;7.770;2023-07-09T01:21:32;101848.56;;;18.10;43.64
45040;BME280;30778;53.574;7.770;2023-07-09T01:23:59;101845.22;;;18.06;43.75
45040;BME280;30778;53.574;7.770;2023-07-09T01:26:37;101844.63;;;18.01;43.85
45040;BME280;30778;53.574;7.770;2023-07-09T01:29:04;101842.16;;;18.14;43.69
45040;BME280;30778;53.574;7.770;2023-07-09T01:31:29;101839.09;;;18.22;43.43
45040;BME280;30778;53.574;7.770;2023-07-09T01:33:55;101855.47;;;18.13;43.85
45040;BME280;30778;53.574;7.770;2023-07-09T01:36:21;101855.13;;;18.03;44.11
45040;BME280;30778;53.574;7.770;2023-07-09T01:38:51;101862.81;;;18.08;44.08
45040;BME280;30778;53.574;7.770;2023-07-09T01:41:17;101854.94;;;18.06;44.05
45040;BME280;30778;53.574;7.770;2023-07-09T01:43:44;101852.66;;;18.00;44.08
45040;BME280;30778;53.574;7.770;2023-07-09T01:46:11;101853.59;;;17.99;44.27
45040;BME280;30778;53.574;7.770;2023-07-09T01:48:38;101855.13;;;17.87;44.43
45040;BME280;30778;53.574;7.770;2023-07-09T01:51:14;101857.59;;;17.90;44.53
45040;BME280;30778;53.574;7.770;2023-07-09T01:53:43;101857.94;;;18.00;44.44
45040;BME280;30778;53.574;7.770;2023-07-09T01:56:09;101855.88;;;17.89;44.32
45040;BME280;30778;53.574;7.770;2023-07-09T01:58:37;101850.84;;;17.84;44.48
45040;BME280;30778;53.574;7.770;2023-07-09T02:01:09;101860.41;;;17.87;44.42
45040;BME280;30778;53.574;7.770;2023-07-09T02:03:35;101860.91;;;17.78;44.44
45040;BME280;30778;53.574;7.770;2023-07-09T02:06:01;101859.03;;;17.80;44.91
45040;BME280;30778;53.574;7.770;2023-07-09T02:08:28;101848.81;;;17.90;44.61
45040;BME280;30778;53.574;7.770;2023-07-09T02:10:54;101844.38;;;17.90;44.25
45040;BME280;30778;53.574;7.770;2023-07-09T02:13:19;101843.78;;;17.85;44.56
45040;BME280;30778;53.574;7.770;2023-07-09T02:15:45;101854.44;;;17.83;44.78
45040;BME280;30778;53.574;7.770;2023-07-09T02:18:12;101846.78;;;17.79;44.49
45040;BME280;30778;53.574;7.770;2023-07-09T02:20:38;101845.22;;;17.75;44.72
45040;BME280;30778;53.574;7.770;2023-07-09T02:23:06;101838.47;;;17.69;44.64
45040;BME280;30778;53.574;7.770;2023-07-09T02:25:32;101841.91;;;17.71;44.95
45040;BME280;30778;53.574;7.770;2023-07-09T02:27:58;101843.88;;;17.83;44.51
45040;BME280;30778;53.574;7.770;2023-07-09T02:30:24;101838.66;;;17.82;44.74
45040;BME280;30778;53.574;7.770;2023-07-09T02:32:50;101836.72;;;17.85;44.63
45040;BME280;30778;53.574;7.770;2023-07-09T02:35:16;101841.50;;;17.79;44.84
45040;BME280;30778;53.574;7.770;2023-07-09T02:37:41;101835.69;;;17.72;44.75
45040;BME280;30778;53.574;7.770;2023-07-09T02:40:08;101831.56;;;17.67;44.85
45040;BME280;30778;53.574;7.770;2023-07-09T02:42:35;101835.00;;;17.69;45.11
45040;BME280;30778;53.574;7.770;2023-07-09T02:45:01;101823.06;;;17.77;44.70
45040;BME280;30778;53.574;7.770;2023-07-09T02:47:30;101827.56;;;17.75;44.96
45040;BME280;30778;53.574;7.770;2023-07-09T02:49:58;101824.59;;;17.65;45.20
45040;BME280;30778;53.574;7.770;2023-07-09T02:52:23;101830.03;;;17.62;45.41
45040;BME280;30778;53.574;7.770;2023-07-09T02:54:49;101830.97;;;17.61;45.25
45040;BME280;30778;53.574;7.770;2023-07-09T02:57:14;101835.16;;;17.65;45.41
45040;BME280;30778;53.574;7.770;2023-07-09T02:59:40;101829.09;;;17.63;45.18
45040;BME280;30778;53.574;7.770;2023-07-09T03:02:06;101836.28;;;17.61;45.40
45040;BME280;30778;53.574;7.770;2023-07-09T03:04:32;101834.47;;;17.62;45.32
45040;BME280;30778;53.574;7.770;2023-07-09T03:06:58;101839.75;;;17.62;45.13
45040;BME280;30778;53.574;7.770;2023-07-09T03:09:25;101833.94;;;17.55;45.49
45040;BME280;30778;53.574;7.770;2023-07-09T03:11:51;101847.09;;;17.57;45.22
45040;BME280;30778;53.574;7.770;2023-07-09T03:14:16;101844.00;;;17.49;45.35
45040;BME280;30778;53.574;7.770;2023-07-09T03:16:45;101843.84;;;17.52;45.37
45040;BME280;30778;53.574;7.770;2023-07-09T03:19:11;101853.56;;;17.51;45.37
45040;BME280;30778;53.574;7.770;2023-07-09T03:21:36;101858.78;;;17.35;45.88
45040;BME280;30778;53.574;7.770;2023-07-09T03:24:02;101841.81;;;17.57;45.54
45040;BME280;30778;53.574;7.770;2023-07-09T03:26:28;101858.50;;;17.57;45.40
45040;BME280;30778;53.574;7.770;2023-07-09T03:28:53;101861.81;;;17.45;45.88
45040;BME280;30778;53.574;7.770;2023-07-09T03:31:19;101854.94;;;17.58;45.31
45040;BME280;30778;53.574;7.770;2023-07-09T03:33:49;101856.72;;;17.58;45.38
45040;BME280;30778;53.574;7.770;2023-07-09T03:36:16;101859.00;;;17.48;45.60
45040;BME280;30778;53.574;7.770;2023-07-09T03:38:42;101853.72;;;17.48;45.77
45040;BME280;30778;53.574;7.770;2023-07-09T03:41:07;101852.72;;;17.51;45.71
45040;BME280;30778;53.574;7.770;2023-07-09T03:43:33;101851.53;;;17.56;45.49
45040;BME280;30778;53.574;7.770;2023-07-09T03:46:01;101857.28;;;17.47;45.56
45040;BME280;30778;53.574;7.770;2023-07-09T03:48:27;101851.84;;;17.50;45.45
45040;BME280;30778;53.574;7.770;2023-07-09T03:50:52;101850.91;;;17.51;45.75
45040;BME280;30778;53.574;7.770;2023-07-09T03:53:18;101845.47;;;17.54;45.42
45040;BME280;30778;53.574;7.770;2023-07-09T03:55:45;101843.50;;;17.74;44.95
45040;BME280;30778;53.574;7.770;2023-07-09T03:58:12;101843.69;;;17.71;44.86
45040;BME280;30778;53.574;7.770;2023-07-09T04:00:37;101840.78;;;17.91;44.69
45040;BME280;30778;53.574;7.770;2023-07-09T04:03:03;101842.59;;;17.91;44.56
45040;BME280;30778;53.574;7.770;2023-07-09T04:05:28;101845.03;;;17.94;44.56
45040;BME280;30778;53.574;7.770;2023-07-09T04:07:54;101844.81;;;17.98;44.40
45040;BME280;30778;53.574;7.770;2023-07-09T04:10:20;101836.13;;;17.96;44.16
45040;BME280;30778;53.574;7.770;2023-07-09T04:12:45;101829.34;;;18.06;44.08
45040;BME280;30778;53.574;7.770;2023-07-09T04:15:12;101831.84;;;18.10;44.03
45040;BME280;30778;53.574;7.770;2023-07-09T04:17:40;101836.34;;;18.08;44.13
45040;BME280;30778;53.574;7.770;2023-07-09T04:20:08;101835.84;;;18.17;43.68
45040;BME280;30778;53.574;7.770;2023-07-09T04:22:35;101833.88;;;18.20;43.65
45040;BME280;30778;53.574;7.770;2023-07-09T04:25:02;101826.28;;;18.30;43.33
45040;BME280;30778;53.574;7.770;2023-07-09T04:27:30;101828.44;;;18.23;43.33
45040;BME280;30778;53.574;7.770;2023-07-09T04:29:56;101837.22;;;18.24;43.30
45040;BME280;30778;53.574;7.770;2023-07-09T04:32:21;101833.25;;;18.31;43.05
45040;BME280;30778;53.574;7.770;2023-07-09T04:34:47;101837.97;;;18.26;43.36
45040;BME280;30778;53.574;7.770;2023-07-09T04:37:13;101830.28;;;18.37;43.25
45040;BME280;30778;53.574;7.770;2023-07-09T04:39:39;101838.44;;;18.48;42.80
45040;BME280;30778;53.574;7.770;2023-07-09T04:42:06;101833.41;;;18.44;42.83
45040;BME280;30778;53.574;7.770;2023-07-09T04:44:35;101832.56;;;18.43;42.97
45040;BME280;30778;53.574;7.770;2023-07-09T04:47:01;101826.88;;;18.50;42.66
45040;BME280;30778;53.574;7.770;2023-07-09T04:49:26;101828.47;;;18.68;42.57
45040;BME280;30778;53.574;7.770;2023-07-09T04:51:52;101828.47;;;18.82;42.05
45040;BME280;30778;53.574;7.770;2023-07-09T04:54:17;101834.22;;;18.91;41.53
45040;BME280;30778;53.574;7.770;2023-07-09T04:56:43;101831.00;;;19.00;41.63
45040;BME280;30778;53.574;7.770;2023-07-09T04:59:11;101833.25;;;18.92;42.00
45040;BME280;30778;53.574;7.770;2023-07-09T05:01:37;101834.97;;;18.93;41.69
45040;BME280;30778;53.574;7.770;2023-07-09T05:04:03;101835.53;;;19.12;41.59
45040;BME280;30778;53.574;7.770;2023-07-09T05:06:29;101839.53;;;19.48;41.12
45040;BME280;30778;53.574;7.770;2023-07-09T05:08:54;101840.22;;;19.93;40.09
45040;BME280;30778;53.574;7.770;2023-07-09T05:11:20;101841.13;;;20.86;38.56
45040;BME280;30778;53.574;7.770;2023-07-09T05:13:46;101835.47;;;21.42;37.26
45040;BME280;30778;53.574;7.770;2023-07-09T05:16:11;101838.81;;;21.83;36.42
45040;BME280;30778;53.574;7.770;2023-07-09T05:18:37;101845.16;;;22.41;35.64
45040;BME280;30778;53.574;7.770;2023-07-09T05:21:03;101846.88;;;23.00;34.37
45040;BME280;30778;53.574;7.770;2023-07-09T05:23:28;101844.84;;;23.15;34.54
45040;BME280;30778;53.574;7.770;2023-07-09T05:25:58;101845.84;;;23.48;33.94
45040;BME280;30778;53.574;7.770;2023-07-09T05:28:24;101847.84;;;23.78;32.97
45040;BME280;30778;53.574;7.770;2023-07-09T05:30:50;101842.31;;;24.34;32.42
45040;BME280;30778;53.574;7.770;2023-07-09T05:33:17;101842.75;;;24.18;32.26
45040;BME280;30778;53.574;7.770;2023-07-09T05:35:43;101835.91;;;25.00;31.08
45040;BME280;30778;53.574;7.770;2023-07-09T05:38:09;101833.78;;;25.34;30.51
45040;BME280;30778;53.574;7.770;2023-07-09T05:40:34;101837.28;;;25.25;30.53
45040;BME280;30778;53.574;7.770;2023-07-09T05:43:00;101824.44;;;25.19;30.75
45040;BME280;30778;53.574;7.770;2023-07-09T05:45:26;101832.75;;;25.16;31.21
45040;BME280;30778;53.574;7.770;2023-07-09T05:47:51;101828.22;;;25.07;31.11
45040;BME280;30778;53.574;7.770;2023-07-09T05:50:17;101832.38;;;24.78;31.13
45040;BME280;30778;53.574;7.770;2023-07-09T05:52:42;101837.59;;;25.01;31.54
45040;BME280;30778;53.574;7.770;2023-07-09T05:55:08;101830.94;;;25.26;30.67
45040;BME280;30778;53.574;7.770;2023-07-09T05:57:33;101841.09;;;25.22;30.62
45040;BME280;30778;53.574;7.770;2023-07-09T06:00:01;101838.81;;;25.58;30.68
45040;BME280;30778;53.574;7.770;2023-07-09T06:02:39;101836.56;;;25.54;30.33
45040;BME280;30778;53.574;7.770;2023-07-09T06:05:05;101842.34;;;25.28;30.93
45040;BME280;30778;53.574;7.770;2023-07-09T06:07:35;101842.47;;;24.75;31.57
45040;BME280;30778;53.574;7.770;2023-07-09T06:10:00;101843.13;;;23.81;33.04
45040;BME280;30778;53.574;7.770;2023-07-09T06:12:26;101840.09;;;23.86;33.19
45040;BME280;30778;53.574;7.770;2023-07-09T06:14:51;101840.16;;;24.60;32.24
45040;BME280;30778;53.574;7.770;2023-07-09T06:17:17;101836.63;;;24.81;31.24
45040;BME280;30778;53.574;7.770;2023-07-09T06:19:43;101849.97;;;25.33;30.56
45040;BME280;30778;53.574;7.770;2023-07-09T06:22:08;101855.91;;;25.77;30.15
45040;BME280;30778;53.574;7.770;2023-07-09T06:24:34;101854.19;;;25.66;30.01
45040;BME280;30778;53.574;7.770;2023-07-09T06:26:59;101851.84;;;25.82;30.27
45040;BME280;30778;53.574;7.770;2023-07-09T06:29:25;101851.09;;;25.61;30.23
45040;BME280;30778;53.574;7.770;2023-07-09T06:31:51;101846.06;;;25.06;30.90
45040;BME280;30778;53.574;7.770;2023-07-09T06:34:16;101856.22;;;24.28;32.27
45040;BME280;30778;53.574;7.770;2023-07-09T06:36:42;101853.97;;;24.65;31.61
45040;BME280;30778;53.574;7.770;2023-07-09T06:39:08;101851.38;;;25.77;30.05
45040;BME280;30778;53.574;7.770;2023-07-09T06:41:33;101848.50;;;26.39;29.60
45040;BME280;30778;53.574;7.770;2023-07-09T06:44:05;101855.09;;;26.54;28.55
45040;BME280;30778;53.574;7.770;2023-07-09T06:46:31;101856.59;;;27.33;28.10
45040;BME280;30778;53.574;7.770;2023-07-09T06:48:57;101849.13;;;26.89;28.61
45040;BME280;30778;53.574;7.770;2023-07-09T06:51:23;101854.06;;;26.84;28.57
45040;BME280;30778;53.574;7.770;2023-07-09T06:53:48;101853.41;;;26.73;29.10
45040;BME280;30778;53.574;7.770;2023-07-09T06:56:17;101854.81;;;26.57;28.90
45040;BME280;30778;53.574;7.770;2023-07-09T06:58:42;101854.94;;;26.85;28.88
45040;BME280;30778;53.574;7.770;2023-07-09T07:01:10;101856.44;;;26.97;28.64
45040;BME280;30778;53.574;7.770;2023-07-09T07:03:36;101853.44;;;27.47;27.43
45040;BME280;30778;53.574;7.770;2023-07-09T07:06:03;101860.00;;;28.26;26.44
45040;BME280;30778;53.574;7.770;2023-07-09T07:08:31;101865.41;;;27.99;27.09
45040;BME280;30778;53.574;7.770;2023-07-09T07:10:59;101862.56;;;27.55;26.90
45040;BME280;30778;53.574;7.770;2023-07-09T07:13:29;101859.28;;;27.33;27.45
45040;BME280;30778;53.574;7.770;2023-07-09T07:15:55;101864.25;;;27.56;27.23
45040;BME280;30778;53.574;7.770;2023-07-09T07:18:20;101863.78;;;27.70;27.58
45040;BME280;30778;53.574;7.770;2023-07-09T07:20:46;101858.88;;;28.55;26.63
45040;BME280;30778;53.574;7.770;2023-07-09T07:23:12;101868.75;;;29.25;25.76
45040;BME280;30778;53.574;7.770;2023-07-09T07:25:37;101859.16;;;29.81;25.51
45040;BME280;30778;53.574;7.770;2023-07-09T07:28:03;101862.56;;;29.91;24.63
45040;BME280;30778;53.574;7.770;2023-07-09T07:30:28;101868.59;;;29.69;24.37
45040;BME280;30778;53.574;7.770;2023-07-09T07:32:54;101858.47;;;29.20;25.49
45040;BME280;30778;53.574;7.770;2023-07-09T07:35:20;101858.06;;;29.49;24.70
45040;BME280;30778;53.574;7.770;2023-07-09T07:37:45;101862.13;;;30.21;24.20
45040;BME280;30778;53.574;7.770;2023-07-09T07:40:11;101854.88;;;30.29;23.57
45040;BME280;30778;53.574;7.770;2023-07-09T07:42:36;101857.00;;;30.75;23.43
45040;BME280;30778;53.574;7.770;2023-07-09T07:45:03;101867.69;;;30.27;23.43
45040;BME280;30778;53.574;7.770;2023-07-09T07:47:29;101862.75;;;29.98;24.05
45040;BME280;30778;53.574;7.770;2023-07-09T07:49:55;101862.94;;;30.21;23.65
45040;BME280;30778;53.574;7.770;2023-07-09T07:52:22;101858.34;;;30.87;22.64
45040;BME280;30778;53.574;7.770;2023-07-09T07:54:48;101856.53;;;30.47;23.85
45040;BME280;30778;53.574;7.770;2023-07-09T07:57:13;101854.47;;;30.82;22.72
45040;BME280;30778;53.574;7.770;2023-07-09T07:59:39;101858.19;;;29.98;23.64
45040;BME280;30778;53.574;7.770;2023-07-09T08:02:09;101862.91;;;29.96;24.38
45040;BME280;30778;53.574;7.770;2023-07-09T08:04:36;101858.91;;;30.09;24.04
45040;BME280;30778;53.574;7.770;2023-07-09T08:07:02;101857.22;;;30.41;23.86
45040;BME280;30778;53.574;7.770;2023-07-09T08:09:28;101860.03;;;30.88;23.58
45040;BME280;30778;53.574;7.770;2023-07-09T08:11:54;101876.63;;;31.87;23.07
45040;BME280;30778;53.574;7.770;2023-07-09T08:14:20;101864.50;;;32.67;21.85
45040;BME280;30778;53.574;7.770;2023-07-09T08:16:46;101863.16;;;32.10;21.41
45040;BME280;30778;53.574;7.770;2023-07-09T08:19:12;101862.38;;;31.78;21.84
45040;BME280;30778;53.574;7.770;2023-07-09T08:21:37;101853.13;;;31.65;22.49
45040;BME280;30778;53.574;7.770;2023-07-09T08:24:03;101863.44;;;31.30;22.94
45040;BME280;30778;53.574;7.770;2023-07-09T08:26:29;101865.59;;;32.20;22.17
45040;BME280;30778;53.574;7.770;2023-07-09T08:28:56;101859.50;;;33.09;20.68
45040;BME280;30778;53.574;7.770;2023-07-09T08:31:22;101867.06;;;33.64;20.71
45040;BME280;30778;53.574;7.770;2023-07-09T08:33:48;101864.19;;;33.66;20.03
45040;BME280;30778;53.574;7.770;2023-07-09T08:36:14;101869.13;;;33.77;20.55
45040;BME280;30778;53.574;7.770;2023-07-09T08:38:40;101868.09;;;34.49;19.21
45040;BME280;30778;53.574;7.770;2023-07-09T08:43:35;101863.81;;;33.54;20.46
45040;BME280;30778;53.574;7.770;2023-07-09T08:46:24;101861.03;;;34.05;20.03
45040;BME280;30778;53.574;7.770;2023-07-09T08:48:53;101860.41;;;33.82;20.38
45040;BME280;30778;53.574;7.770;2023-07-09T08:51:40;101864.03;;;33.89;20.37
45040;BME280;30778;53.574;7.770;2023-07-09T08:54:29;101863.25;;;33.59;20.43
45040;BME280;30778;53.574;7.770;2023-07-09T08:57:09;101845.44;;;32.83;21.84
45040;BME280;30778;53.574;7.770;2023-07-09T08:59:40;101841.88;;;32.98;21.35
45040;BME280;30778;53.574;7.770;2023-07-09T09:02:16;101839.59;;;33.16;21.63
45040;BME280;30778;53.574;7.770;2023-07-09T09:04:47;101843.91;;;32.66;22.45
45040;BME280;30778;53.574;7.770;2023-07-09T09:07:38;101839.91;;;33.07;22.41
45040;BME280;30778;53.574;7.770;2023-07-09T09:11:10;101838.59;;;33.02;22.11
45040;BME280;30778;53.574;7.770;2023-07-09T09:13:14;101843.97;;;33.32;21.90
45040;BME280;30778;53.574;7.770;2023-07-09T09:15:43;101843.69;;;33.63;21.10
45040;BME280;30778;53.574;7.770;2023-07-09T09:18:25;101838.13;;;33.50;21.58
45040;BME280;30778;53.574;7.770;2023-07-09T09:23:49;101844.41;;;32.84;22.42
45040;BME280;30778;53.574;7.770;2023-07-09T09:26:24;101845.91;;;31.26;23.09
45040;BME280;30778;53.574;7.770;2023-07-09T09:28:49;101846.41;;;30.49;24.63
45040;BME280;30778;53.574;7.770;2023-07-09T09:31:16;101850.63;;;30.02;26.03
45040;BME280;30778;53.574;7.770;2023-07-09T09:33:45;101848.69;;;30.93;24.68
45040;BME280;30778;53.574;7.770;2023-07-09T09:36:16;101848.34;;;31.12;24.93
45040;BME280;30778;53.574;7.770;2023-07-09T09:38:42;101852.13;;;31.66;23.55
45040;BME280;30778;53.574;7.770;2023-07-09T09:41:25;101851.19;;;31.81;22.98
45040;BME280;30778;53.574;7.770;2023-07-09T09:43:53;101848.00;;;32.62;22.99
45040;BME280;30778;53.574;7.770;2023-07-09T09:46:26;101840.34;;;32.51;23.95
45040;BME280;30778;53.574;7.770;2023-07-09T09:49:01;101841.66;;;32.70;23.48
45040;BME280;30778;53.574;7.770;2023-07-09T09:51:27;101843.16;;;32.72;22.67
45040;BME280;30778;53.574;7.770;2023-07-09T09:53:58;101836.81;;;32.50;23.15
45040;BME280;30778;53.574;7.770;2023-07-09T09:56:28;101844.47;;;32.00;23.95
45040;BME280;30778;53.574;7.770;2023-07-09T09:58:56;101847.06;;;31.62;24.34
45040;BME280;30778;53.574;7.770;2023-07-09T10:01:30;101845.47;;;31.45;24.99
45040;BME280;30778;53.574;7.770;2023-07-09T10:03:58;101842.88;;;32.29;23.79
45040;BME280;30778;53.574;7.770;2023-07-09T10:06:43;101846.41;;;32.15;24.08
45040;BME280;30778;53.574;7.770;2023-07-09T10:09:20;101837.34;;;32.08;23.50
45040;BME280;30778;53.574;7.770;2023-07-09T10:14:59;101840.41;;;31.11;24.89
45040;BME280;30778;53.574;7.770;2023-07-09T10:17:39;101840.81;;;30.83;25.23
45040;BME280;30778;53.574;7.770;2023-07-09T10:26:01;101851.69;;;31.23;24.74
45040;BME280;30778;53.574;7.770;2023-07-09T10:39:28;101858.50;;;32.42;23.50
45040;BME280;30778;53.574;7.770;2023-07-09T10:41:59;101856.25;;;32.08;23.63
45040;BME280;30778;53.574;7.770;2023-07-09T10:44:37;101862.00;;;32.05;24.15
45040;BME280;30778;53.574;7.770;2023-07-09T10:49:49;101862.34;;;31.47;23.57
45040;BME280;30778;53.574;7.770;2023-07-09T10:55:02;101854.84;;;31.89;25.00
45040;BME280;30778;53.574;7.770;2023-07-09T10:57:41;101855.22;;;31.23;24.90
45040;BME280;30778;53.574;7.770;2023-07-09T11:00:15;101855.38;;;31.84;24.39
45040;BME280;30778;53.574;7.770;2023-07-09T11:02:42;101852.38;;;32.48;24.49
45040;BME280;30778;53.574;7.770;2023-07-09T11:05:09;101851.91;;;32.74;23.72
45040;BME280;30778;53.574;7.770;2023-07-09T11:08:04;101844.09;;;32.79;22.77
45040;BME280;30778;53.574;7.770;2023-07-09T11:10:37;101845.03;;;32.57;23.23
45040;BME280;30778;53.574;7.770;2023-07-09T11:13:10;101844.47;;;32.23;23.46
45040;BME280;30778;53.574;7.770;2023-07-09T11:15:41;101843.03;;;31.90;23.59
45040;BME280;30778;53.574;7.770;2023-07-09T11:18:12;101840.97;;;31.69;23.50
45040;BME280;30778;53.574;7.770;2023-07-09T11:20:44;101844.34;;;31.94;22.96
45040;BME280;30778;53.574;7.770;2023-07-09T11:23:24;101841.22;;;31.82;24.17
45040;BME280;30778;53.574;7.770;2023-07-09T11:28:45;101845.28;;;32.62;23.36
45040;BME280;30778;53.574;7.770;2023-07-09T11:34:26;101819.59;;;31.82;22.98
45040;BME280;30778;53.574;7.770;2023-07-09T11:37:11;101813.44;;;32.34;23.35
45040;BME280;30778;53.574;7.770;2023-07-09T11:42:04;101814.78;;;32.98;23.07
45040;BME280;30778;53.574;7.770;2023-07-09T11:44:49;101804.44;;;33.74;21.51
45040;BME280;30778;53.574;7.770;2023-07-09T11:47:22;101808.91;;;34.10;21.39
45040;BME280;30778;53.574;7.770;2023-07-09T11:49:55;101814.94;;;34.27;21.14
45040;BME280;30778;53.574;7.770;2023-07-09T11:55:19;101811.09;;;33.72;20.99
45040;BME280;30778;53.574;7.770;2023-07-09T11:57:48;101800.50;;;33.04;22.27
45040;BME280;30778;53.574;7.770;2023-07-09T12:00:15;101798.44;;;32.76;21.73
45040;BME280;30778;53.574;7.770;2023-07-09T12:02:42;101807.31;;;33.00;21.47
45040;BME280;30778;53.574;7.770;2023-07-09T12:05:08;101802.94;;;32.69;21.98
45040;BME280;30778;53.574;7.770;2023-07-09T12:07:35;101795.50;;;33.22;21.34
45040;BME280;30778;53.574;7.770;2023-07-09T12:10:03;101790.47;;;33.19;21.55
45040;BME280;30778;53.574;7.770;2023-07-09T12:12:34;101791.78;;;33.60;20.63
45040;BME280;30778;53.574;7.770;2023-07-09T12:15:05;101788.84;;;34.04;21.46
45040;BME280;30778;53.574;7.770;2023-07-09T12:17:36;101792.63;;;33.82;20.81
45040;BME280;30778;53.574;7.770;2023-07-09T12:20:04;101787.84;;;33.62;20.80
45040;BME280;30778;53.574;7.770;2023-07-09T12:22:35;101784.44;;;33.75;21.03
45040;BME280;30778;53.574;7.770;2023-07-09T12:25:00;101779.16;;;34.17;20.69
45040;BME280;30778;53.574;7.770;2023-07-09T12:27:31;101786.03;;;34.76;20.02
45040;BME280;30778;53.574;7.770;2023-07-09T12:30:11;101780.38;;;34.42;19.31
45040;BME280;30778;53.574;7.770;2023-07-09T12:32:44;101768.59;;;33.79;19.43
45040;BME280;30778;53.574;7.770;2023-07-09T12:35:22;101769.50;;;33.07;20.18
45040;BME280;30778;53.574;7.770;2023-07-09T12:37:48;101762.97;;;33.59;19.57
45040;BME280;30778;53.574;7.770;2023-07-09T12:40:33;101763.22;;;34.35;19.93
45040;BME280;30778;53.574;7.770;2023-07-09T12:43:02;101761.94;;;35.07;18.94
45040;BME280;30778;53.574;7.770;2023-07-09T12:45:35;101756.91;;;35.11;18.17
45040;BME280;30778;53.574;7.770;2023-07-09T12:48:21;101764.34;;;34.82;20.06
45040;BME280;30778;53.574;7.770;2023-07-09T12:51:09;101756.81;;;34.15;19.21
45040;BME280;30778;53.574;7.770;2023-07-09T12:53:42;101758.78;;;33.56;18.80
45040;BME280;30778;53.574;7.770;2023-07-09T12:56:18;101757.75;;;34.00;18.97
45040;BME280;30778;53.574;7.770;2023-07-09T12:58:49;101744.44;;;34.34;18.96
45040;BME280;30778;53.574;7.770;2023-07-09T13:01:19;101752.78;;;35.28;18.76
45040;BME280;30778;53.574;7.770;2023-07-09T13:03:55;101747.41;;;35.42;16.61
45040;BME280;30778;53.574;7.770;2023-07-09T13:09:19;101744.53;;;34.19;18.11
45040;BME280;30778;53.574;7.770;2023-07-09T13:11:50;101741.47;;;34.00;18.86
45040;BME280;30778;53.574;7.770;2023-07-09T13:14:29;101743.34;;;34.00;19.50
45040;BME280;30778;53.574;7.770;2023-07-09T13:17:03;101750.59;;;34.21;18.80
45040;BME280;30778;53.574;7.770;2023-07-09T13:19:54;101748.47;;;34.44;18.15
45040;BME280;30778;53.574;7.770;2023-07-09T13:22:27;101757.69;;;34.92;18.99
45040;BME280;30778;53.574;7.770;2023-07-09T13:25:12;101751.47;;;34.98;18.24
45040;BME280;30778;53.574;7.770;2023-07-09T13:27:37;101751.84;;;34.18;18.50
45040;BME280;30778;53.574;7.770;2023-07-09T13:30:11;101748.91;;;34.13;18.89
45040;BME280;30778;53.574;7.770;2023-07-09T13:32:41;101746.69;;;34.30;18.66
45040;BME280;30778;53.574;7.770;2023-07-09T13:35:23;101735.84;;;34.30;18.97
45040;BME280;30778;53.574;7.770;2023-07-09T13:37:55;101737.16;;;34.76;18.74
45040;BME280;30778;53.574;7.770;2023-07-09T13:40:39;101735.53;;;34.95;19.13
45040;BME280;30778;53.574;7.770;2023-07-09T13:43:31;101730.00;;;35.29;18.57
45040;BME280;30778;53.574;7.770;2023-07-09T13:46:06;101731.88;;;35.16;18.17
45040;BME280;30778;53.574;7.770;2023-07-09T13:48:33;101732.09;;;35.34;18.51